sensor_id;sensor_type;location;lat;lon;timestamp;P1;durP1;ratioP1;P2;durP2;ratioP2
24421;SDS011;12600;53.326;-6.298;2023-04-03T00:00:55;5.15;;;2.90;;
24421;SDS011;12600;53.326;-6.298;2023-04-03T00:03:44;6.32;;;3.03;;
24421;SDS011;12600;53.326;-6.298;2023-04-03T00:06:34;4.43;;;2.83;;
24421;SDS011;12600;53.326;-6.298;2023-04-03T00:09:30;4.28;;;2.92;;
24421;SDS011;12600;53.326;-6.298;2023-04-03T00:12:22;4.43;;;2.90;;
24421;SDS011;12600;53.326;-6.298;2023-04-03T00:15:12;7.55;;;3.10;;
24421;SDS011;12600;53.326;-6.298;2023-04-03T00:18:01;3.70;;;3.20;;
24421;SDS011;12600;53.326;-6.298;2023-04-03T00:20:51;5.43;;;3.95;;
24421;SDS011;12600;53.326;-6.298;2023-04-03T00:23:40;4.38;;;3.60;;
24421;SDS011;12600;53.326;-6.298;2023-04-03T00:26:31;7.22;;;2.97;;
24421;SDS011;12600;53.326;-6.298;2023-04-03T00:29:20;7.10;;;3.63;;
24421;SDS011;12600;53.326;-6.298;2023-04-03T00:32:10;3.47;;;2.80;;
24421;SDS011;12600;53.326;-6.298;2023-04-03T00:34:59;4.40;;;2.90;;
24421;SDS011;12600;53.326;-6.298;2023-04-03T00:37:50;5.85;;;3.17;;
24421;SDS011;12600;53.326;-6.298;2023-04-03T00:40:42;4.57;;;3.40;;
24421;SDS011;12600;53.326;-6.298;2023-04-03T00:43:35;5.32;;;3.08;;
24421;SDS011;12600;53.326;-6.298;2023-04-03T00:46:24;5.38;;;3.33;;
24421;SDS011;12600;53.326;-6.298;2023-04-03T00:49:13;5.65;;;3.30;;
24421;SDS011;12600;53.326;-6.298;2023-04-03T00:52:03;6.25;;;3.83;;
24421;SDS011;12600;53.326;-6.298;2023-04-03T00:54:54;7.60;;;4.45;;
24421;SDS011;12600;53.326;-6.298;2023-04-03T00:57:50;5.80;;;3.35;;
24421;SDS011;12600;53.326;-6.298;2023-04-03T01:00:43;7.00;;;3.58;;
24421;SDS011;12600;53.326;-6.298;2023-04-03T01:03:43;5.80;;;3.30;;
24421;SDS011;12600;53.326;-6.298;2023-04-03T01:06:34;6.82;;;3.80;;
24421;SDS011;12600;53.326;-6.298;2023-04-03T01:09:27;5.00;;;3.35;;
24421;SDS011;12600;53.326;-6.298;2023-04-03T01:12:19;5.90;;;3.30;;
24421;SDS011;12600;53.326;-6.298;2023-04-03T01:15:11;4.10;;;2.90;;
24421;SDS011;12600;53.326;-6.298;2023-04-03T01:18:04;6.72;;;4.00;;
24421;SDS011;12600;53.326;-6.298;2023-04-03T01:21:08;7.07;;;3.65;;
24421;SDS011;12600;53.326;-6.298;2023-04-03T01:24:31;11.88;;;5.72;;
24421;SDS011;12600;53.326;-6.298;2023-04-03T01:27:28;4.95;;;3.13;;
24421;SDS011;12600;53.326;-6.298;2023-04-03T01:30:18;8.25;;;4.30;;
24421;SDS011;12600;53.326;-6.298;2023-04-03T01:33:11;7.30;;;4.10;;
24421;SDS011;12600;53.326;-6.298;2023-04-03T01:36:00;5.78;;;3.00;;
24421;SDS011;12600;53.326;-6.298;2023-04-03T01:38:51;7.05;;;3.28;;
24421;SDS011;12600;53.326;-6.298;2023-04-03T01:41:42;6.20;;;3.60;;
24421;SDS011;12600;53.326;-6.298;2023-04-03T01:44:42;4.55;;;3.15;;
24421;SDS011;12600;53.326;-6.298;2023-04-03T01:47:32;6.00;;;3.92;;
24421;SDS011;12600;53.326;-6.298;2023-04-03T01:50:22;4.65;;;2.80;;
24421;SDS011;12600;53.326;-6.298;2023-04-03T01:53:12;6.80;;;3.08;;
24421;SDS011;12600;53.326;-6.298;2023-04-03T01:56:02;5.75;;;3.13;;
24421;SDS011;12600;53.326;-6.298;2023-04-03T01:58:52;4.22;;;2.80;;
24421;SDS011;12600;53.326;-6.298;2023-04-03T02:01:42;5.90;;;3.05;;
24421;SDS011;12600;53.326;-6.298;2023-04-03T02:04:32;5.20;;;2.85;;
24421;SDS011;12600;53.326;-6.298;2023-04-03T02:07:23;5.80;;;3.10;;
24421;SDS011;12600;53.326;-6.298;2023-04-03T02:10:12;7.65;;;4.35;;
24421;SDS011;12600;53.326;-6.298;2023-04-03T02:13:02;6.15;;;3.60;;
24421;SDS011;12600;53.326;-6.298;2023-04-03T02:15:51;5.63;;;3.20;;
24421;SDS011;12600;53.326;-6.298;2023-04-03T02:18:40;10.10;;;3.50;;
24421;SDS011;12600;53.326;-6.298;2023-04-03T02:21:29;6.35;;;3.30;;
24421;SDS011;12600;53.326;-6.298;2023-04-03T02:24:20;4.10;;;3.20;;
24421;SDS011;12600;53.326;-6.298;2023-04-03T02:27:10;4.03;;;3.10;;
24421;SDS011;12600;53.326;-6.298;2023-04-03T02:29:59;5.57;;;3.40;;
24421;SDS011;12600;53.326;-6.298;2023-04-03T02:32:48;7.22;;;3.70;;
24421;SDS011;12600;53.326;-6.298;2023-04-03T02:35:38;6.25;;;3.50;;
24421;SDS011;12600;53.326;-6.298;2023-04-03T02:38:28;6.28;;;3.85;;
24421;SDS011;12600;53.326;-6.298;2023-04-03T02:41:18;9.07;;;3.80;;
24421;SDS011;12600;53.326;-6.298;2023-04-03T02:44:10;5.78;;;3.70;;
24421;SDS011;12600;53.326;-6.298;2023-04-03T02:47:00;9.05;;;4.15;;
24421;SDS011;12600;53.326;-6.298;2023-04-03T02:49:50;8.07;;;4.45;;
24421;SDS011;12600;53.326;-6.298;2023-04-03T02:52:39;7.75;;;4.38;;
24421;SDS011;12600;53.326;-6.298;2023-04-03T02:55:29;6.25;;;4.22;;
24421;SDS011;12600;53.326;-6.298;2023-04-03T02:58:19;6.70;;;4.20;;
24421;SDS011;12600;53.326;-6.298;2023-04-03T03:01:11;7.43;;;4.40;;
24421;SDS011;12600;53.326;-6.298;2023-04-03T03:04:01;7.75;;;4.78;;
24421;SDS011;12600;53.326;-6.298;2023-04-03T03:06:50;8.70;;;5.05;;
24421;SDS011;12600;53.326;-6.298;2023-04-03T03:09:39;10.40;;;5.05;;
24421;SDS011;12600;53.326;-6.298;2023-04-03T03:12:29;8.98;;;5.13;;
24421;SDS011;12600;53.326;-6.298;2023-04-03T03:15:21;10.35;;;5.65;;
24421;SDS011;12600;53.326;-6.298;2023-04-03T03:18:10;8.63;;;5.57;;
24421;SDS011;12600;53.326;-6.298;2023-04-03T03:21:00;11.40;;;5.63;;
24421;SDS011;12600;53.326;-6.298;2023-04-03T03:23:51;12.45;;;5.70;;
24421;SDS011;12600;53.326;-6.298;2023-04-03T03:26:40;9.77;;;5.80;;
24421;SDS011;12600;53.326;-6.298;2023-04-03T03:29:31;7.82;;;5.43;;
24421;SDS011;12600;53.326;-6.298;2023-04-03T03:32:24;9.88;;;5.50;;
24421;SDS011;12600;53.326;-6.298;2023-04-03T03:35:13;11.75;;;5.70;;
24421;SDS011;12600;53.326;-6.298;2023-04-03T03:38:02;11.38;;;5.97;;
24421;SDS011;12600;53.326;-6.298;2023-04-03T03:40:52;9.85;;;5.90;;
24421;SDS011;12600;53.326;-6.298;2023-04-03T03:43:42;11.45;;;6.03;;
24421;SDS011;12600;53.326;-6.298;2023-04-03T03:46:33;11.48;;;5.80;;
24421;SDS011;12600;53.326;-6.298;2023-04-03T03:49:25;16.25;;;5.82;;
24421;SDS011;12600;53.326;-6.298;2023-04-03T03:52:14;10.95;;;5.88;;
24421;SDS011;12600;53.326;-6.298;2023-04-03T03:55:04;10.85;;;5.97;;
24421;SDS011;12600;53.326;-6.298;2023-04-03T03:57:56;13.57;;;5.77;;
24421;SDS011;12600;53.326;-6.298;2023-04-03T04:00:47;9.70;;;5.85;;
24421;SDS011;12600;53.326;-6.298;2023-04-03T04:03:37;10.93;;;6.18;;
24421;SDS011;12600;53.326;-6.298;2023-04-03T04:06:30;9.73;;;6.00;;
24421;SDS011;12600;53.326;-6.298;2023-04-03T04:09:23;11.45;;;6.28;;
24421;SDS011;12600;53.326;-6.298;2023-04-03T04:12:13;11.55;;;6.80;;
24421;SDS011;12600;53.326;-6.298;2023-04-03T04:15:03;11.93;;;6.95;;
24421;SDS011;12600;53.326;-6.298;2023-04-03T04:17:53;10.10;;;6.45;;
24421;SDS011;12600;53.326;-6.298;2023-04-03T04:20:44;11.02;;;7.05;;
24421;SDS011;12600;53.326;-6.298;2023-04-03T04:23:37;12.02;;;7.20;;
24421;SDS011;12600;53.326;-6.298;2023-04-03T04:26:27;13.45;;;7.40;;
24421;SDS011;12600;53.326;-6.298;2023-04-03T04:29:17;12.00;;;7.00;;
24421;SDS011;12600;53.326;-6.298;2023-04-03T04:32:08;11.93;;;7.35;;
24421;SDS011;12600;53.326;-6.298;2023-04-03T04:34:58;12.80;;;6.97;;
24421;SDS011;12600;53.326;-6.298;2023-04-03T04:37:50;11.85;;;7.65;;
24421;SDS011;12600;53.326;-6.298;2023-04-03T04:40:41;13.57;;;7.65;;
24421;SDS011;12600;53.326;-6.298;2023-04-03T04:43:31;13.55;;;8.88;;
24421;SDS011;12600;53.326;-6.298;2023-04-03T04:46:21;12.90;;;8.10;;
24421;SDS011;12600;53.326;-6.298;2023-04-03T04:49:15;11.32;;;7.82;;
24421;SDS011;12600;53.326;-6.298;2023-04-03T04:52:04;11.88;;;8.38;;
24421;SDS011;12600;53.326;-6.298;2023-04-03T04:54:54;12.38;;;7.93;;
24421;SDS011;12600;53.326;-6.298;2023-04-03T04:57:45;18.45;;;7.97;;
24421;SDS011;12600;53.326;-6.298;2023-04-03T05:00:35;13.30;;;7.70;;
24421;SDS011;12600;53.326;-6.298;2023-04-03T05:03:25;12.50;;;7.40;;
24421;SDS011;12600;53.326;-6.298;2023-04-03T05:06:14;10.55;;;6.90;;
24421;SDS011;12600;53.326;-6.298;2023-04-03T05:09:04;14.80;;;6.63;;
24421;SDS011;12600;53.326;-6.298;2023-04-03T05:11:54;10.43;;;7.10;;
24421;SDS011;12600;53.326;-6.298;2023-04-03T05:14:48;10.17;;;6.67;;
24421;SDS011;12600;53.326;-6.298;2023-04-03T05:17:38;11.15;;;7.60;;
24421;SDS011;12600;53.326;-6.298;2023-04-03T05:20:31;13.63;;;7.22;;
24421;SDS011;12600;53.326;-6.298;2023-04-03T05:23:21;11.50;;;7.18;;
24421;SDS011;12600;53.326;-6.298;2023-04-03T05:26:13;16.80;;;7.53;;
24421;SDS011;12600;53.326;-6.298;2023-04-03T05:29:06;11.68;;;7.15;;
24421;SDS011;12600;53.326;-6.298;2023-04-03T05:34:49;11.05;;;7.03;;
24421;SDS011;12600;53.326;-6.298;2023-04-03T05:37:39;11.73;;;7.18;;
24421;SDS011;12600;53.326;-6.298;2023-04-03T05:40:35;10.82;;;6.57;;
24421;SDS011;12600;53.326;-6.298;2023-04-03T05:43:26;11.13;;;7.30;;
24421;SDS011;12600;53.326;-6.298;2023-04-03T05:46:17;13.38;;;7.60;;
24421;SDS011;12600;53.326;-6.298;2023-04-03T05:49:13;12.80;;;7.65;;
24421;SDS011;12600;53.326;-6.298;2023-04-03T05:52:03;14.25;;;7.97;;
24421;SDS011;12600;53.326;-6.298;2023-04-03T05:54:53;17.05;;;8.85;;
24421;SDS011;12600;53.326;-6.298;2023-04-03T05:57:45;14.68;;;8.77;;
24421;SDS011;12600;53.326;-6.298;2023-04-03T06:00:35;17.60;;;9.40;;
24421;SDS011;12600;53.326;-6.298;2023-04-03T06:03:26;17.17;;;8.88;;
24421;SDS011;12600;53.326;-6.298;2023-04-03T06:06:17;17.70;;;9.63;;
24421;SDS011;12600;53.326;-6.298;2023-04-03T06:09:07;19.02;;;8.43;;
24421;SDS011;12600;53.326;-6.298;2023-04-03T06:11:59;16.70;;;9.27;;
24421;SDS011;12600;53.326;-6.298;2023-04-03T06:14:49;12.18;;;8.57;;
24421;SDS011;12600;53.326;-6.298;2023-04-03T06:17:39;16.60;;;9.35;;
24421;SDS011;12600;53.326;-6.298;2023-04-03T06:20:30;18.30;;;9.75;;
24421;SDS011;12600;53.326;-6.298;2023-04-03T06:23:21;18.63;;;9.40;;
24421;SDS011;12600;53.326;-6.298;2023-04-03T06:26:10;23.58;;;10.18;;
24421;SDS011;12600;53.326;-6.298;2023-04-03T06:28:59;19.63;;;10.43;;
24421;SDS011;12600;53.326;-6.298;2023-04-03T06:31:49;19.13;;;10.27;;
24421;SDS011;12600;53.326;-6.298;2023-04-03T06:34:39;20.27;;;10.70;;
24421;SDS011;12600;53.326;-6.298;2023-04-03T06:37:28;19.48;;;11.40;;
24421;SDS011;12600;53.326;-6.298;2023-04-03T06:40:21;22.58;;;12.40;;
24421;SDS011;12600;53.326;-6.298;2023-04-03T06:43:12;20.20;;;11.07;;
24421;SDS011;12600;53.326;-6.298;2023-04-03T06:46:01;25.10;;;12.02;;
24421;SDS011;12600;53.326;-6.298;2023-04-03T06:48:52;20.08;;;11.00;;
24421;SDS011;12600;53.326;-6.298;2023-04-03T06:51:42;21.35;;;10.75;;
24421;SDS011;12600;53.326;-6.298;2023-04-03T06:54:31;21.10;;;11.88;;
24421;SDS011;12600;53.326;-6.298;2023-04-03T06:57:23;19.63;;;10.98;;
24421;SDS011;12600;53.326;-6.298;2023-04-03T07:00:13;21.05;;;10.23;;
24421;SDS011;12600;53.326;-6.298;2023-04-03T07:03:03;18.60;;;10.48;;
24421;SDS011;12600;53.326;-6.298;2023-04-03T07:05:52;22.95;;;10.32;;
24421;SDS011;12600;53.326;-6.298;2023-04-03T07:08:42;16.27;;;9.55;;
24421;SDS011;12600;53.326;-6.298;2023-04-03T07:11:32;19.77;;;9.50;;
24421;SDS011;12600;53.326;-6.298;2023-04-03T07:14:23;18.98;;;9.48;;
24421;SDS011;12600;53.326;-6.298;2023-04-03T07:17:12;20.25;;;9.75;;
24421;SDS011;12600;53.326;-6.298;2023-04-03T07:20:02;18.48;;;11.65;;
24421;SDS011;12600;53.326;-6.298;2023-04-03T07:22:52;22.42;;;9.95;;
24421;SDS011;12600;53.326;-6.298;2023-04-03T07:25:42;20.15;;;9.95;;
24421;SDS011;12600;53.326;-6.298;2023-04-03T07:28:32;17.00;;;10.02;;
24421;SDS011;12600;53.326;-6.298;2023-04-03T07:31:23;20.60;;;9.30;;
24421;SDS011;12600;53.326;-6.298;2023-04-03T07:34:13;24.05;;;10.75;;
24421;SDS011;12600;53.326;-6.298;2023-04-03T07:37:02;21.38;;;9.25;;
24421;SDS011;12600;53.326;-6.298;2023-04-03T07:39:51;18.83;;;12.55;;
24421;SDS011;12600;53.326;-6.298;2023-04-03T07:42:42;15.63;;;9.45;;
24421;SDS011;12600;53.326;-6.298;2023-04-03T07:45:31;17.27;;;8.68;;
24421;SDS011;12600;53.326;-6.298;2023-04-03T07:48:26;25.45;;;8.88;;
24421;SDS011;12600;53.326;-6.298;2023-04-03T07:51:15;19.00;;;9.75;;
24421;SDS011;12600;53.326;-6.298;2023-04-03T07:54:05;25.17;;;10.82;;
24421;SDS011;12600;53.326;-6.298;2023-04-03T07:56:54;17.80;;;9.38;;
24421;SDS011;12600;53.326;-6.298;2023-04-03T07:59:44;17.27;;;9.13;;
24421;SDS011;12600;53.326;-6.298;2023-04-03T08:02:33;17.25;;;9.18;;
24421;SDS011;12600;53.326;-6.298;2023-04-03T08:05:24;14.75;;;8.27;;
24421;SDS011;12600;53.326;-6.298;2023-04-03T08:08:14;17.27;;;7.78;;
24421;SDS011;12600;53.326;-6.298;2023-04-03T08:11:07;12.25;;;7.57;;
24421;SDS011;12600;53.326;-6.298;2023-04-03T08:13:58;17.40;;;7.88;;
24421;SDS011;12600;53.326;-6.298;2023-04-03T08:16:48;17.60;;;7.80;;
24421;SDS011;12600;53.326;-6.298;2023-04-03T08:19:38;14.35;;;7.88;;
24421;SDS011;12600;53.326;-6.298;2023-04-03T08:22:29;16.75;;;7.90;;
24421;SDS011;12600;53.326;-6.298;2023-04-03T08:25:18;15.82;;;8.05;;
24421;SDS011;12600;53.326;-6.298;2023-04-03T08:28:08;18.50;;;7.57;;
24421;SDS011;12600;53.326;-6.298;2023-04-03T08:31:01;19.58;;;8.20;;
24421;SDS011;12600;53.326;-6.298;2023-04-03T08:33:53;16.02;;;8.30;;
24421;SDS011;12600;53.326;-6.298;2023-04-03T08:36:42;18.52;;;8.55;;
24421;SDS011;12600;53.326;-6.298;2023-04-03T08:39:33;20.73;;;8.88;;
24421;SDS011;12600;53.326;-6.298;2023-04-03T08:42:29;20.63;;;9.55;;
24421;SDS011;12600;53.326;-6.298;2023-04-03T08:45:33;18.90;;;10.02;;
24421;SDS011;12600;53.326;-6.298;2023-04-03T08:48:34;19.48;;;10.48;;
24421;SDS011;12600;53.326;-6.298;2023-04-03T08:51:27;21.67;;;10.77;;
24421;SDS011;12600;53.326;-6.298;2023-04-03T08:54:24;17.98;;;11.32;;
24421;SDS011;12600;53.326;-6.298;2023-04-03T08:57:26;16.98;;;9.63;;
24421;SDS011;12600;53.326;-6.298;2023-04-03T09:00:20;20.50;;;10.02;;
24421;SDS011;12600;53.326;-6.298;2023-04-03T09:03:14;17.67;;;9.30;;
24421;SDS011;12600;53.326;-6.298;2023-04-03T09:06:06;18.15;;;13.43;;
24421;SDS011;12600;53.326;-6.298;2023-04-03T09:09:06;17.08;;;9.55;;
24421;SDS011;12600;53.326;-6.298;2023-04-03T09:12:04;19.52;;;11.35;;
24421;SDS011;12600;53.326;-6.298;2023-04-03T09:15:05;17.75;;;11.45;;
24421;SDS011;12600;53.326;-6.298;2023-04-03T09:18:19;13.15;;;8.93;;
24421;SDS011;12600;53.326;-6.298;2023-04-03T09:21:15;15.07;;;11.57;;
24421;SDS011;12600;53.326;-6.298;2023-04-03T09:24:10;17.92;;;10.05;;
24421;SDS011;12600;53.326;-6.298;2023-04-03T09:27:03;17.67;;;9.52;;
24421;SDS011;12600;53.326;-6.298;2023-04-03T09:29:56;14.07;;;9.15;;
24421;SDS011;12600;53.326;-6.298;2023-04-03T09:32:48;18.70;;;10.18;;
24421;SDS011;12600;53.326;-6.298;2023-04-03T09:35:40;17.02;;;13.15;;
24421;SDS011;12600;53.326;-6.298;2023-04-03T09:38:34;16.35;;;8.48;;
24421;SDS011;12600;53.326;-6.298;2023-04-03T09:41:24;18.25;;;9.55;;
24421;SDS011;12600;53.326;-6.298;2023-04-03T09:44:22;17.33;;;9.27;;
24421;SDS011;12600;53.326;-6.298;2023-04-03T09:47:17;15.70;;;8.80;;
24421;SDS011;12600;53.326;-6.298;2023-04-03T09:50:19;21.85;;;8.93;;
24421;SDS011;12600;53.326;-6.298;2023-04-03T09:53:24;19.85;;;10.23;;
24421;SDS011;12600;53.326;-6.298;2023-04-03T09:56:19;18.95;;;8.77;;
24421;SDS011;12600;53.326;-6.298;2023-04-03T09:59:13;23.35;;;9.80;;
24421;SDS011;12600;53.326;-6.298;2023-04-03T10:02:21;19.95;;;8.75;;
24421;SDS011;12600;53.326;-6.298;2023-04-03T10:05:30;17.13;;;9.60;;
24421;SDS011;12600;53.326;-6.298;2023-04-03T10:08:24;16.95;;;9.30;;
24421;SDS011;12600;53.326;-6.298;2023-04-03T10:11:18;20.08;;;9.30;;
24421;SDS011;12600;53.326;-6.298;2023-04-03T10:14:15;23.30;;;9.60;;
24421;SDS011;12600;53.326;-6.298;2023-04-03T10:17:10;23.23;;;9.80;;
24421;SDS011;12600;53.326;-6.298;2023-04-03T10:20:09;21.30;;;9.57;;
24421;SDS011;12600;53.326;-6.298;2023-04-03T10:23:21;21.02;;;9.13;;
24421;SDS011;12600;53.326;-6.298;2023-04-03T10:26:17;20.65;;;9.32;;
24421;SDS011;12600;53.326;-6.298;2023-04-03T10:29:22;22.85;;;10.82;;
24421;SDS011;12600;53.326;-6.298;2023-04-03T10:32:30;17.90;;;11.38;;
24421;SDS011;12600;53.326;-6.298;2023-04-03T10:35:44;19.83;;;9.25;;
24421;SDS011;12600;53.326;-6.298;2023-04-03T10:38:42;24.00;;;9.40;;
24421;SDS011;12600;53.326;-6.298;2023-04-03T10:41:42;19.65;;;9.82;;
24421;SDS011;12600;53.326;-6.298;2023-04-03T10:45:06;27.88;;;10.18;;
24421;SDS011;12600;53.326;-6.298;2023-04-03T10:48:10;24.45;;;9.55;;
24421;SDS011;12600;53.326;-6.298;2023-04-03T10:51:09;19.13;;;9.40;;
24421;SDS011;12600;53.326;-6.298;2023-04-03T10:54:16;24.58;;;9.85;;
24421;SDS011;12600;53.326;-6.298;2023-04-03T10:57:10;21.48;;;8.35;;
24421;SDS011;12600;53.326;-6.298;2023-04-03T11:00:01;17.05;;;8.00;;
24421;SDS011;12600;53.326;-6.298;2023-04-03T11:02:56;19.55;;;11.30;;
24421;SDS011;12600;53.326;-6.298;2023-04-03T11:05:51;17.38;;;9.48;;
24421;SDS011;12600;53.326;-6.298;2023-04-03T11:08:45;17.85;;;8.90;;
24421;SDS011;12600;53.326;-6.298;2023-04-03T11:11:42;20.67;;;9.68;;
24421;SDS011;12600;53.326;-6.298;2023-04-03T11:14:35;22.00;;;11.60;;
24421;SDS011;12600;53.326;-6.298;2023-04-03T11:17:28;18.75;;;8.55;;
24421;SDS011;12600;53.326;-6.298;2023-04-03T11:20:23;25.85;;;8.98;;
24421;SDS011;12600;53.326;-6.298;2023-04-03T11:23:21;21.60;;;9.57;;
24421;SDS011;12600;53.326;-6.298;2023-04-03T11:26:23;19.92;;;9.63;;
24421;SDS011;12600;53.326;-6.298;2023-04-03T11:29:21;20.23;;;10.25;;
24421;SDS011;12600;53.326;-6.298;2023-04-03T11:32:36;20.85;;;11.88;;
24421;SDS011;12600;53.326;-6.298;2023-04-03T11:36:12;20.75;;;18.33;;
24421;SDS011;12600;53.326;-6.298;2023-04-03T11:39:20;17.77;;;8.82;;
24421;SDS011;12600;53.326;-6.298;2023-04-03T11:42:14;20.73;;;12.93;;
24421;SDS011;12600;53.326;-6.298;2023-04-03T11:45:16;17.33;;;9.23;;
24421;SDS011;12600;53.326;-6.298;2023-04-03T11:48:44;23.83;;;9.60;;
24421;SDS011;12600;53.326;-6.298;2023-04-03T11:51:40;22.92;;;9.90;;
24421;SDS011;12600;53.326;-6.298;2023-04-03T11:54:44;19.70;;;9.95;;
24421;SDS011;12600;53.326;-6.298;2023-04-03T12:01:04;25.50;;;10.07;;
24421;SDS011;12600;53.326;-6.298;2023-04-03T12:04:09;19.05;;;9.65;;
24421;SDS011;12600;53.326;-6.298;2023-04-03T12:07:11;21.58;;;14.10;;
24421;SDS011;12600;53.326;-6.298;2023-04-03T12:10:16;21.08;;;11.90;;
24421;SDS011;12600;53.326;-6.298;2023-04-03T12:13:19;19.02;;;8.63;;
24421;SDS011;12600;53.326;-6.298;2023-04-03T12:16:18;17.38;;;7.38;;
24421;SDS011;12600;53.326;-6.298;2023-04-03T12:22:26;17.27;;;7.78;;
24421;SDS011;12600;53.326;-6.298;2023-04-03T12:28:39;17.38;;;8.20;;
24421;SDS011;12600;53.326;-6.298;2023-04-03T12:31:33;16.15;;;7.47;;
24421;SDS011;12600;53.326;-6.298;2023-04-03T12:34:38;15.90;;;7.72;;
24421;SDS011;12600;53.326;-6.298;2023-04-03T12:41:27;21.42;;;7.68;;
24421;SDS011;12600;53.326;-6.298;2023-04-03T12:44:37;18.23;;;8.20;;
24421;SDS011;12600;53.326;-6.298;2023-04-03T12:47:35;21.23;;;9.27;;
24421;SDS011;12600;53.326;-6.298;2023-04-03T12:50:27;20.77;;;8.60;;
24421;SDS011;12600;53.326;-6.298;2023-04-03T12:53:21;17.55;;;9.40;;
24421;SDS011;12600;53.326;-6.298;2023-04-03T12:56:20;18.10;;;7.97;;
24421;SDS011;12600;53.326;-6.298;2023-04-03T12:59:13;23.40;;;8.98;;
24421;SDS011;12600;53.326;-6.298;2023-04-03T13:02:12;14.95;;;7.15;;
24421;SDS011;12600;53.326;-6.298;2023-04-03T13:05:13;15.93;;;7.28;;
24421;SDS011;12600;53.326;-6.298;2023-04-03T13:08:09;18.08;;;7.38;;
24421;SDS011;12600;53.326;-6.298;2023-04-03T13:11:03;18.75;;;8.32;;
24421;SDS011;12600;53.326;-6.298;2023-04-03T13:13:58;18.90;;;6.53;;
24421;SDS011;12600;53.326;-6.298;2023-04-03T13:16:52;13.07;;;6.60;;
24421;SDS011;12600;53.326;-6.298;2023-04-03T13:19:45;18.55;;;7.40;;
24421;SDS011;12600;53.326;-6.298;2023-04-03T13:22:36;22.10;;;13.75;;
24421;SDS011;12600;53.326;-6.298;2023-04-03T13:25:31;22.90;;;7.65;;
24421;SDS011;12600;53.326;-6.298;2023-04-03T13:28:24;25.10;;;17.42;;
24421;SDS011;12600;53.326;-6.298;2023-04-03T13:31:17;26.10;;;9.25;;
24421;SDS011;12600;53.326;-6.298;2023-04-03T13:34:12;18.52;;;7.82;;
24421;SDS011;12600;53.326;-6.298;2023-04-03T13:37:06;20.35;;;8.15;;
24421;SDS011;12600;53.326;-6.298;2023-04-03T13:40:10;22.30;;;9.13;;
24421;SDS011;12600;53.326;-6.298;2023-04-03T13:43:02;23.58;;;10.70;;
24421;SDS011;12600;53.326;-6.298;2023-04-03T13:46:05;26.35;;;10.88;;
24421;SDS011;12600;53.326;-6.298;2023-04-03T13:49:18;15.52;;;8.52;;
24421;SDS011;12600;53.326;-6.298;2023-04-03T13:52:23;25.35;;;13.20;;
24421;SDS011;12600;53.326;-6.298;2023-04-03T13:55:19;22.63;;;9.68;;
24421;SDS011;12600;53.326;-6.298;2023-04-03T13:58:20;21.30;;;8.38;;
24421;SDS011;12600;53.326;-6.298;2023-04-03T14:01:15;21.75;;;7.20;;
24421;SDS011;12600;53.326;-6.298;2023-04-03T14:04:13;18.08;;;8.75;;
24421;SDS011;12600;53.326;-6.298;2023-04-03T14:07:06;18.67;;;6.47;;
24421;SDS011;12600;53.326;-6.298;2023-04-03T14:09:57;16.77;;;7.40;;
24421;SDS011;12600;53.326;-6.298;2023-04-03T14:12:46;16.40;;;8.10;;
24421;SDS011;12600;53.326;-6.298;2023-04-03T14:15:37;12.27;;;7.35;;
24421;SDS011;12600;53.326;-6.298;2023-04-03T14:18:27;16.50;;;6.53;;
24421;SDS011;12600;53.326;-6.298;2023-04-03T14:21:16;14.50;;;6.50;;
24421;SDS011;12600;53.326;-6.298;2023-04-03T14:24:08;16.27;;;6.63;;
24421;SDS011;12600;53.326;-6.298;2023-04-03T14:27:00;14.25;;;6.95;;
24421;SDS011;12600;53.326;-6.298;2023-04-03T14:29:50;16.85;;;7.32;;
24421;SDS011;12600;53.326;-6.298;2023-04-03T14:32:41;21.05;;;13.05;;
24421;SDS011;12600;53.326;-6.298;2023-04-03T14:35:31;19.42;;;6.80;;
24421;SDS011;12600;53.326;-6.298;2023-04-03T14:38:23;10.45;;;7.80;;
24421;SDS011;12600;53.326;-6.298;2023-04-03T14:41:15;18.67;;;9.43;;
24421;SDS011;12600;53.326;-6.298;2023-04-03T14:44:08;16.23;;;9.10;;
24421;SDS011;12600;53.326;-6.298;2023-04-03T14:46:58;18.13;;;9.20;;
24421;SDS011;12600;53.326;-6.298;2023-04-03T14:49:48;16.58;;;8.50;;
24421;SDS011;12600;53.326;-6.298;2023-04-03T14:52:37;14.55;;;8.43;;
24421;SDS011;12600;53.326;-6.298;2023-04-03T14:55:28;13.60;;;7.90;;
24421;SDS011;12600;53.326;-6.298;2023-04-03T14:58:18;17.90;;;9.30;;
24421;SDS011;12600;53.326;-6.298;2023-04-03T15:01:11;16.25;;;8.93;;
24421;SDS011;12600;53.326;-6.298;2023-04-03T15:04:01;13.77;;;9.38;;
24421;SDS011;12600;53.326;-6.298;2023-04-03T15:06:53;17.75;;;9.55;;
24421;SDS011;12600;53.326;-6.298;2023-04-03T15:09:42;13.88;;;8.05;;
24421;SDS011;12600;53.326;-6.298;2023-04-03T15:12:32;13.73;;;7.78;;
24421;SDS011;12600;53.326;-6.298;2023-04-03T15:15:21;15.60;;;9.65;;
24421;SDS011;12600;53.326;-6.298;2023-04-03T15:18:17;14.13;;;7.53;;
24421;SDS011;12600;53.326;-6.298;2023-04-03T15:21:10;16.02;;;8.60;;
24421;SDS011;12600;53.326;-6.298;2023-04-03T15:24:00;11.90;;;9.10;;
24421;SDS011;12600;53.326;-6.298;2023-04-03T15:26:49;16.17;;;8.98;;
24421;SDS011;12600;53.326;-6.298;2023-04-03T15:29:38;15.50;;;8.75;;
24421;SDS011;12600;53.326;-6.298;2023-04-03T15:32:29;11.60;;;8.63;;
24421;SDS011;12600;53.326;-6.298;2023-04-03T15:35:22;12.70;;;8.85;;
24421;SDS011;12600;53.326;-6.298;2023-04-03T15:38:11;13.68;;;12.27;;
24421;SDS011;12600;53.326;-6.298;2023-04-03T15:41:01;13.38;;;7.18;;
24421;SDS011;12600;53.326;-6.298;2023-04-03T15:43:50;13.68;;;7.45;;
24421;SDS011;12600;53.326;-6.298;2023-04-03T15:46:39;13.30;;;6.65;;
24421;SDS011;12600;53.326;-6.298;2023-04-03T15:49:29;14.13;;;7.18;;
24421;SDS011;12600;53.326;-6.298;2023-04-03T15:52:22;11.90;;;6.38;;
24421;SDS011;12600;53.326;-6.298;2023-04-03T15:55:11;15.70;;;12.02;;
24421;SDS011;12600;53.326;-6.298;2023-04-03T15:58:00;10.40;;;6.32;;
24421;SDS011;12600;53.326;-6.298;2023-04-03T16:00:50;13.30;;;7.45;;
24421;SDS011;12600;53.326;-6.298;2023-04-03T16:03:39;10.57;;;5.10;;
24421;SDS011;12600;53.326;-6.298;2023-04-03T16:06:32;15.77;;;13.15;;
24421;SDS011;12600;53.326;-6.298;2023-04-03T16:09:23;10.52;;;6.68;;
24421;SDS011;12600;53.326;-6.298;2023-04-03T16:12:12;8.77;;;5.50;;
24421;SDS011;12600;53.326;-6.298;2023-04-03T16:15:02;12.05;;;6.47;;
24421;SDS011;12600;53.326;-6.298;2023-04-03T16:17:54;12.38;;;5.25;;
24421;SDS011;12600;53.326;-6.298;2023-04-03T16:20:43;14.20;;;4.97;;
24421;SDS011;12600;53.326;-6.298;2023-04-03T16:23:32;10.68;;;5.03;;
24421;SDS011;12600;53.326;-6.298;2023-04-03T16:26:23;13.43;;;7.40;;
24421;SDS011;12600;53.326;-6.298;2023-04-03T16:29:13;10.43;;;5.72;;
24421;SDS011;12600;53.326;-6.298;2023-04-03T16:32:03;16.45;;;5.50;;
24421;SDS011;12600;53.326;-6.298;2023-04-03T16:34:52;19.15;;;5.75;;
24421;SDS011;12600;53.326;-6.298;2023-04-03T16:37:42;14.32;;;9.98;;
24421;SDS011;12600;53.326;-6.298;2023-04-03T16:40:31;12.10;;;5.70;;
24421;SDS011;12600;53.326;-6.298;2023-04-03T16:43:23;13.02;;;8.85;;
24421;SDS011;12600;53.326;-6.298;2023-04-03T16:46:12;12.85;;;5.30;;
24421;SDS011;12600;53.326;-6.298;2023-04-03T16:49:01;15.55;;;5.50;;
24421;SDS011;12600;53.326;-6.298;2023-04-03T16:51:51;15.60;;;5.60;;
24421;SDS011;12600;53.326;-6.298;2023-04-03T16:54:40;18.77;;;6.00;;
24421;SDS011;12600;53.326;-6.298;2023-04-03T16:57:29;12.55;;;5.55;;
24421;SDS011;12600;53.326;-6.298;2023-04-03T17:00:20;11.88;;;5.53;;
24421;SDS011;12600;53.326;-6.298;2023-04-03T17:03:10;12.48;;;6.00;;
24421;SDS011;12600;53.326;-6.298;2023-04-03T17:05:59;16.48;;;6.28;;
24421;SDS011;12600;53.326;-6.298;2023-04-03T17:08:49;13.10;;;5.70;;
24421;SDS011;12600;53.326;-6.298;2023-04-03T17:11:46;15.82;;;6.25;;